YPKG

Kalgoorlie Boulder Airport

Kalgoorlie, Australia
METAR YPKG 192230Z AUTO 03006KT 9999 // NCD 09/M01 Q1023 RF00.0/000.0
Observed Flight Rules
Aug-19 @ 22:30 UTC (38 minutes ago) Visual Flight Rules
Wind Visibility Clouds
30° at 6 knots 10,000+ meters
  • Clear skies
Temperatures Readings
Current 9°C / 48°F
Dewpoint -1°C / 30°F
Humidity 50%
Altimeter 30.21" Hg
Pressure 1023 hPa
Elevation 360
METAR YPKG 192230Z AUTO 03006KT 9999 // NCD 09/M01 Q1023 RF00.0/000.0
Observed Flight Rules
Aug-19 @ 22:30 UTC
(38 minutes ago)
VFR
Wind Visibility
30° at 6 knots 10,000+ meters
Clouds
  • Clear skies
Temperature Dewpoint
9°C / 48°F -1°C / 30°F
Humidity Altimeter Pressure
50% 30.21" Hg 1023 hPa